sensor_id;sensor_type;location;lat;lon;timestamp;P1;durP1;ratioP1;P2;durP2;ratioP2
56427;SDS011;42331;53.578;9.760;2023-05-01T00:00:35;20.37;;;10.47;;
56427;SDS011;42331;53.578;9.760;2023-05-01T00:03:06;19.33;;;10.75;;
56427;SDS011;42331;53.578;9.760;2023-05-01T00:05:37;22.27;;;11.50;;
56427;SDS011;42331;53.578;9.760;2023-05-01T00:08:08;20.55;;;11.00;;
56427;SDS011;42331;53.578;9.760;2023-05-01T00:10:39;19.33;;;10.65;;
56427;SDS011;42331;53.578;9.760;2023-05-01T00:13:10;15.27;;;7.72;;
56427;SDS011;42331;53.578;9.760;2023-05-01T00:15:41;17.35;;;10.10;;
56427;SDS011;42331;53.578;9.760;2023-05-01T00:18:12;16.23;;;8.33;;
56427;SDS011;42331;53.578;9.760;2023-05-01T00:20:43;23.85;;;10.52;;
56427;SDS011;42331;53.578;9.760;2023-05-01T00:23:13;21.17;;;9.60;;
56427;SDS011;42331;53.578;9.760;2023-05-01T00:25:44;17.33;;;10.35;;
56427;SDS011;42331;53.578;9.760;2023-05-01T00:28:17;13.45;;;7.13;;
56427;SDS011;42331;53.578;9.760;2023-05-01T00:30:48;20.00;;;10.18;;
56427;SDS011;42331;53.578;9.760;2023-05-01T00:33:19;14.38;;;8.30;;
56427;SDS011;42331;53.578;9.760;2023-05-01T00:35:50;15.35;;;8.00;;
56427;SDS011;42331;53.578;9.760;2023-05-01T00:38:21;19.33;;;10.07;;
56427;SDS011;42331;53.578;9.760;2023-05-01T00:40:53;14.77;;;6.75;;
56427;SDS011;42331;53.578;9.760;2023-05-01T00:43:24;13.18;;;7.05;;
56427;SDS011;42331;53.578;9.760;2023-05-01T00:45:55;19.70;;;10.30;;
56427;SDS011;42331;53.578;9.760;2023-05-01T00:48:25;17.05;;;9.68;;
56427;SDS011;42331;53.578;9.760;2023-05-01T00:50:56;16.77;;;9.88;;
56427;SDS011;42331;53.578;9.760;2023-05-01T00:53:29;19.30;;;10.65;;
56427;SDS011;42331;53.578;9.760;2023-05-01T00:56:02;14.82;;;9.30;;
56427;SDS011;42331;53.578;9.760;2023-05-01T00:58:33;11.93;;;7.13;;
56427;SDS011;42331;53.578;9.760;2023-05-01T01:01:04;19.00;;;9.93;;
56427;SDS011;42331;53.578;9.760;2023-05-01T01:03:35;21.85;;;11.50;;
56427;SDS011;42331;53.578;9.760;2023-05-01T01:06:12;19.30;;;11.05;;
56427;SDS011;42331;53.578;9.760;2023-05-01T01:09:12;17.73;;;10.75;;
56427;SDS011;42331;53.578;9.760;2023-05-01T01:15:28;16.77;;;9.77;;
56427;SDS011;42331;53.578;9.760;2023-05-01T01:17:55;18.25;;;10.57;;
56427;SDS011;42331;53.578;9.760;2023-05-01T01:20:45;23.17;;;11.10;;
56427;SDS011;42331;53.578;9.760;2023-05-01T01:29:31;19.70;;;11.23;;
56427;SDS011;42331;53.578;9.760;2023-05-01T01:34:57;18.80;;;10.65;;
56427;SDS011;42331;53.578;9.760;2023-05-01T01:37:39;19.13;;;10.98;;
56427;SDS011;42331;53.578;9.760;2023-05-01T01:40:16;19.55;;;10.35;;
56427;SDS011;42331;53.578;9.760;2023-05-01T01:42:53;18.33;;;10.30;;
56427;SDS011;42331;53.578;9.760;2023-05-01T01:45:46;19.90;;;11.05;;
56427;SDS011;42331;53.578;9.760;2023-05-01T01:48:21;20.65;;;11.32;;
56427;SDS011;42331;53.578;9.760;2023-05-01T01:50:54;21.42;;;10.95;;
56427;SDS011;42331;53.578;9.760;2023-05-01T01:53:28;17.45;;;10.63;;
56427;SDS011;42331;53.578;9.760;2023-05-01T01:56:05;22.00;;;11.32;;
56427;SDS011;42331;53.578;9.760;2023-05-01T01:58:37;19.13;;;10.77;;
56427;SDS011;42331;53.578;9.760;2023-05-01T02:03:41;20.50;;;10.32;;
56427;SDS011;42331;53.578;9.760;2023-05-01T02:06:14;18.75;;;10.20;;
56427;SDS011;42331;53.578;9.760;2023-05-01T02:08:46;18.70;;;10.20;;
56427;SDS011;42331;53.578;9.760;2023-05-01T02:11:19;18.02;;;9.93;;
56427;SDS011;42331;53.578;9.760;2023-05-01T02:13:52;16.73;;;9.30;;
56427;SDS011;42331;53.578;9.760;2023-05-01T02:16:24;18.98;;;10.40;;
56427;SDS011;42331;53.578;9.760;2023-05-01T02:18:56;19.48;;;9.23;;
56427;SDS011;42331;53.578;9.760;2023-05-01T02:21:28;15.93;;;9.40;;
56427;SDS011;42331;53.578;9.760;2023-05-01T02:24:01;18.85;;;9.32;;
56427;SDS011;42331;53.578;9.760;2023-05-01T02:26:36;16.88;;;9.07;;
56427;SDS011;42331;53.578;9.760;2023-05-01T02:29:14;17.23;;;8.82;;
56427;SDS011;42331;53.578;9.760;2023-05-01T02:31:45;15.85;;;8.77;;
56427;SDS011;42331;53.578;9.760;2023-05-01T02:34:16;11.63;;;7.18;;
56427;SDS011;42331;53.578;9.760;2023-05-01T02:36:47;12.65;;;7.90;;
56427;SDS011;42331;53.578;9.760;2023-05-01T02:39:18;14.60;;;8.43;;
56427;SDS011;42331;53.578;9.760;2023-05-01T02:41:49;13.73;;;7.88;;
56427;SDS011;42331;53.578;9.760;2023-05-01T02:44:24;13.15;;;7.20;;
56427;SDS011;42331;53.578;9.760;2023-05-01T02:46:56;10.38;;;5.30;;
56427;SDS011;42331;53.578;9.760;2023-05-01T02:49:29;16.27;;;6.15;;
56427;SDS011;42331;53.578;9.760;2023-05-01T02:54:33;11.52;;;5.22;;
56427;SDS011;42331;53.578;9.760;2023-05-01T02:57:05;10.73;;;3.30;;
56427;SDS011;42331;53.578;9.760;2023-05-01T02:59:35;11.63;;;3.60;;
56427;SDS011;42331;53.578;9.760;2023-05-01T03:02:07;10.45;;;3.92;;
56427;SDS011;42331;53.578;9.760;2023-05-01T03:04:37;5.07;;;2.28;;
56427;SDS011;42331;53.578;9.760;2023-05-01T03:07:08;7.15;;;3.10;;
56427;SDS011;42331;53.578;9.760;2023-05-01T03:09:39;6.57;;;3.20;;
56427;SDS011;42331;53.578;9.760;2023-05-01T03:12:09;9.65;;;3.35;;
56427;SDS011;42331;53.578;9.760;2023-05-01T03:14:40;8.88;;;3.03;;
56427;SDS011;42331;53.578;9.760;2023-05-01T03:17:11;6.95;;;2.95;;
56427;SDS011;42331;53.578;9.760;2023-05-01T03:19:42;9.27;;;2.47;;
56427;SDS011;42331;53.578;9.760;2023-05-01T03:22:13;10.20;;;3.15;;
56427;SDS011;42331;53.578;9.760;2023-05-01T03:24:44;9.73;;;3.30;;
56427;SDS011;42331;53.578;9.760;2023-05-01T03:27:16;8.75;;;3.28;;
56427;SDS011;42331;53.578;9.760;2023-05-01T03:29:47;8.05;;;2.95;;
56427;SDS011;42331;53.578;9.760;2023-05-01T03:32:18;6.70;;;2.55;;
56427;SDS011;42331;53.578;9.760;2023-05-01T03:34:49;10.30;;;2.78;;
56427;SDS011;42331;53.578;9.760;2023-05-01T03:37:20;8.88;;;3.08;;
56427;SDS011;42331;53.578;9.760;2023-05-01T03:39:50;8.40;;;2.97;;
56427;SDS011;42331;53.578;9.760;2023-05-01T03:42:21;8.43;;;3.45;;
56427;SDS011;42331;53.578;9.760;2023-05-01T03:44:52;12.33;;;4.40;;
56427;SDS011;42331;53.578;9.760;2023-05-01T03:47:23;6.85;;;3.00;;
56427;SDS011;42331;53.578;9.760;2023-05-01T03:49:53;12.20;;;2.95;;
56427;SDS011;42331;53.578;9.760;2023-05-01T03:52:24;9.55;;;3.33;;
56427;SDS011;42331;53.578;9.760;2023-05-01T03:54:55;7.85;;;3.22;;
56427;SDS011;42331;53.578;9.760;2023-05-01T03:57:26;12.05;;;3.13;;
56427;SDS011;42331;53.578;9.760;2023-05-01T03:59:56;6.70;;;2.25;;
56427;SDS011;42331;53.578;9.760;2023-05-01T04:02:28;8.57;;;3.17;;
56427;SDS011;42331;53.578;9.760;2023-05-01T04:04:59;14.63;;;3.95;;
56427;SDS011;42331;53.578;9.760;2023-05-01T04:07:29;9.90;;;3.25;;
56427;SDS011;42331;53.578;9.760;2023-05-01T04:10:00;9.18;;;3.00;;
56427;SDS011;42331;53.578;9.760;2023-05-01T04:12:31;7.53;;;2.90;;
56427;SDS011;42331;53.578;9.760;2023-05-01T04:15:02;7.50;;;3.08;;
56427;SDS011;42331;53.578;9.760;2023-05-01T04:17:34;8.30;;;3.20;;
56427;SDS011;42331;53.578;9.760;2023-05-01T04:20:05;9.77;;;3.30;;
56427;SDS011;42331;53.578;9.760;2023-05-01T04:22:36;9.05;;;3.15;;
56427;SDS011;42331;53.578;9.760;2023-05-01T04:25:07;7.65;;;3.33;;
56427;SDS011;42331;53.578;9.760;2023-05-01T04:27:38;9.23;;;4.13;;
56427;SDS011;42331;53.578;9.760;2023-05-01T04:30:09;9.18;;;3.72;;
56427;SDS011;42331;53.578;9.760;2023-05-01T04:32:40;7.10;;;3.43;;
56427;SDS011;42331;53.578;9.760;2023-05-01T04:35:11;9.40;;;3.03;;
56427;SDS011;42331;53.578;9.760;2023-05-01T04:37:41;7.88;;;3.17;;
56427;SDS011;42331;53.578;9.760;2023-05-01T04:40:12;6.25;;;2.35;;
56427;SDS011;42331;53.578;9.760;2023-05-01T04:42:43;12.95;;;4.15;;
56427;SDS011;42331;53.578;9.760;2023-05-01T04:45:14;11.15;;;3.35;;
56427;SDS011;42331;53.578;9.760;2023-05-01T04:47:45;9.07;;;3.17;;
56427;SDS011;42331;53.578;9.760;2023-05-01T04:50:15;9.75;;;3.40;;
56427;SDS011;42331;53.578;9.760;2023-05-01T04:52:46;8.00;;;3.00;;
56427;SDS011;42331;53.578;9.760;2023-05-01T04:55:17;7.97;;;3.42;;
56427;SDS011;42331;53.578;9.760;2023-05-01T04:57:48;9.63;;;3.28;;
56427;SDS011;42331;53.578;9.760;2023-05-01T05:00:18;6.28;;;3.28;;
56427;SDS011;42331;53.578;9.760;2023-05-01T05:02:50;8.18;;;2.97;;
56427;SDS011;42331;53.578;9.760;2023-05-01T05:05:20;7.72;;;2.88;;
56427;SDS011;42331;53.578;9.760;2023-05-01T05:07:51;8.77;;;3.13;;
56427;SDS011;42331;53.578;9.760;2023-05-01T05:10:22;5.55;;;3.08;;
56427;SDS011;42331;53.578;9.760;2023-05-01T05:12:53;11.48;;;3.50;;
56427;SDS011;42331;53.578;9.760;2023-05-01T05:15:23;11.38;;;3.85;;
56427;SDS011;42331;53.578;9.760;2023-05-01T05:17:54;10.85;;;3.28;;
56427;SDS011;42331;53.578;9.760;2023-05-01T05:20:25;7.63;;;3.33;;
56427;SDS011;42331;53.578;9.760;2023-05-01T05:22:56;8.52;;;3.35;;
56427;SDS011;42331;53.578;9.760;2023-05-01T05:25:26;7.70;;;3.60;;
56427;SDS011;42331;53.578;9.760;2023-05-01T05:27:57;11.05;;;3.35;;
56427;SDS011;42331;53.578;9.760;2023-05-01T05:33:00;13.20;;;3.25;;
56427;SDS011;42331;53.578;9.760;2023-05-01T05:35:30;7.15;;;3.40;;
56427;SDS011;42331;53.578;9.760;2023-05-01T05:38:01;9.52;;;3.28;;
56427;SDS011;42331;53.578;9.760;2023-05-01T05:40:32;10.27;;;3.08;;
56427;SDS011;42331;53.578;9.760;2023-05-01T05:43:03;11.40;;;3.30;;
56427;SDS011;42331;53.578;9.760;2023-05-01T05:45:34;9.13;;;3.13;;
56427;SDS011;42331;53.578;9.760;2023-05-01T05:48:05;7.40;;;2.30;;
56427;SDS011;42331;53.578;9.760;2023-05-01T05:50:36;12.38;;;3.22;;
56427;SDS011;42331;53.578;9.760;2023-05-01T05:53:06;10.38;;;2.83;;
56427;SDS011;42331;53.578;9.760;2023-05-01T05:55:38;8.70;;;2.78;;
56427;SDS011;42331;53.578;9.760;2023-05-01T05:58:09;7.53;;;2.90;;
56427;SDS011;42331;53.578;9.760;2023-05-01T06:00:40;9.23;;;2.90;;
56427;SDS011;42331;53.578;9.760;2023-05-01T06:03:12;8.93;;;2.67;;
56427;SDS011;42331;53.578;9.760;2023-05-01T06:05:43;7.65;;;2.67;;
56427;SDS011;42331;53.578;9.760;2023-05-01T06:08:14;8.13;;;3.13;;
56427;SDS011;42331;53.578;9.760;2023-05-01T06:10:44;10.73;;;3.17;;
56427;SDS011;42331;53.578;9.760;2023-05-01T06:13:15;7.50;;;3.03;;
56427;SDS011;42331;53.578;9.760;2023-05-01T06:15:46;8.68;;;2.80;;
56427;SDS011;42331;53.578;9.760;2023-05-01T06:18:17;7.28;;;2.55;;
56427;SDS011;42331;53.578;9.760;2023-05-01T06:20:48;9.05;;;3.17;;
56427;SDS011;42331;53.578;9.760;2023-05-01T06:23:19;7.72;;;3.15;;
56427;SDS011;42331;53.578;9.760;2023-05-01T06:25:50;6.40;;;2.40;;
56427;SDS011;42331;53.578;9.760;2023-05-01T06:28:20;6.30;;;2.55;;
56427;SDS011;42331;53.578;9.760;2023-05-01T06:30:51;8.15;;;2.63;;
56427;SDS011;42331;53.578;9.760;2023-05-01T06:33:22;9.85;;;2.60;;
56427;SDS011;42331;53.578;9.760;2023-05-01T06:35:53;10.48;;;2.90;;
56427;SDS011;42331;53.578;9.760;2023-05-01T06:38:25;6.40;;;2.70;;
56427;SDS011;42331;53.578;9.760;2023-05-01T06:40:56;4.90;;;2.20;;
56427;SDS011;42331;53.578;9.760;2023-05-01T06:43:27;6.55;;;2.83;;
56427;SDS011;42331;53.578;9.760;2023-05-01T06:45:59;8.43;;;2.80;;
56427;SDS011;42331;53.578;9.760;2023-05-01T06:48:30;5.95;;;2.55;;
56427;SDS011;42331;53.578;9.760;2023-05-01T06:51:01;7.22;;;2.47;;
56427;SDS011;42331;53.578;9.760;2023-05-01T06:53:32;5.75;;;2.50;;
56427;SDS011;42331;53.578;9.760;2023-05-01T06:56:03;6.35;;;2.42;;
56427;SDS011;42331;53.578;9.760;2023-05-01T06:58:35;7.80;;;2.63;;
56427;SDS011;42331;53.578;9.760;2023-05-01T07:01:05;7.60;;;2.60;;
56427;SDS011;42331;53.578;9.760;2023-05-01T07:03:36;9.35;;;2.78;;
56427;SDS011;42331;53.578;9.760;2023-05-01T07:06:07;7.67;;;2.77;;
56427;SDS011;42331;53.578;9.760;2023-05-01T07:08:38;7.95;;;2.28;;
56427;SDS011;42331;53.578;9.760;2023-05-01T07:11:09;8.63;;;2.53;;
56427;SDS011;42331;53.578;9.760;2023-05-01T07:13:40;6.43;;;2.42;;
56427;SDS011;42331;53.578;9.760;2023-05-01T07:16:11;8.38;;;2.33;;
56427;SDS011;42331;53.578;9.760;2023-05-01T07:18:42;11.07;;;2.95;;
56427;SDS011;42331;53.578;9.760;2023-05-01T07:21:13;10.90;;;2.72;;
56427;SDS011;42331;53.578;9.760;2023-05-01T07:23:44;7.27;;;3.07;;
56427;SDS011;42331;53.578;9.760;2023-05-01T07:26:15;9.65;;;3.03;;
56427;SDS011;42331;53.578;9.760;2023-05-01T07:28:46;4.85;;;1.67;;
56427;SDS011;42331;53.578;9.760;2023-05-01T07:31:16;7.82;;;3.33;;
56427;SDS011;42331;53.578;9.760;2023-05-01T07:33:47;8.07;;;2.85;;
56427;SDS011;42331;53.578;9.760;2023-05-01T07:36:18;8.07;;;2.40;;
56427;SDS011;42331;53.578;9.760;2023-05-01T07:38:51;5.93;;;2.72;;
56427;SDS011;42331;53.578;9.760;2023-05-01T07:41:21;6.45;;;2.50;;
56427;SDS011;42331;53.578;9.760;2023-05-01T07:43:54;8.57;;;2.15;;
56427;SDS011;42331;53.578;9.760;2023-05-01T07:46:27;6.55;;;2.80;;
56427;SDS011;42331;53.578;9.760;2023-05-01T07:48:58;6.35;;;2.45;;
56427;SDS011;42331;53.578;9.760;2023-05-01T07:51:29;6.43;;;1.80;;
56427;SDS011;42331;53.578;9.760;2023-05-01T07:54:00;4.90;;;2.00;;
56427;SDS011;42331;53.578;9.760;2023-05-01T07:56:33;10.85;;;2.47;;
56427;SDS011;42331;53.578;9.760;2023-05-01T07:59:04;5.90;;;2.28;;
56427;SDS011;42331;53.578;9.760;2023-05-01T08:01:35;6.90;;;2.80;;
56427;SDS011;42331;53.578;9.760;2023-05-01T08:04:05;8.27;;;2.38;;
56427;SDS011;42331;53.578;9.760;2023-05-01T08:06:36;7.78;;;2.42;;
56427;SDS011;42331;53.578;9.760;2023-05-01T08:09:07;10.68;;;2.63;;
56427;SDS011;42331;53.578;9.760;2023-05-01T08:11:38;6.72;;;2.40;;
56427;SDS011;42331;53.578;9.760;2023-05-01T08:14:09;4.05;;;1.33;;
56427;SDS011;42331;53.578;9.760;2023-05-01T08:16:40;6.28;;;2.45;;
56427;SDS011;42331;53.578;9.760;2023-05-01T08:19:11;6.47;;;2.20;;
56427;SDS011;42331;53.578;9.760;2023-05-01T08:21:41;9.13;;;2.60;;
56427;SDS011;42331;53.578;9.760;2023-05-01T08:24:12;4.88;;;1.60;;
56427;SDS011;42331;53.578;9.760;2023-05-01T08:26:43;10.35;;;2.33;;
56427;SDS011;42331;53.578;9.760;2023-05-01T08:29:14;6.50;;;2.47;;
56427;SDS011;42331;53.578;9.760;2023-05-01T08:31:45;7.47;;;2.30;;
56427;SDS011;42331;53.578;9.760;2023-05-01T08:34:15;6.47;;;2.05;;
56427;SDS011;42331;53.578;9.760;2023-05-01T08:36:46;7.00;;;2.22;;
56427;SDS011;42331;53.578;9.760;2023-05-01T08:39:17;6.93;;;2.00;;
56427;SDS011;42331;53.578;9.760;2023-05-01T08:41:48;5.13;;;1.80;;
56427;SDS011;42331;53.578;9.760;2023-05-01T08:44:19;5.90;;;2.03;;
56427;SDS011;42331;53.578;9.760;2023-05-01T08:47:04;8.53;;;2.10;;
56427;SDS011;42331;53.578;9.760;2023-05-01T08:49:41;8.38;;;2.28;;
56427;SDS011;42331;53.578;9.760;2023-05-01T08:52:13;7.25;;;2.05;;
56427;SDS011;42331;53.578;9.760;2023-05-01T08:57:16;4.00;;;1.90;;
56427;SDS011;42331;53.578;9.760;2023-05-01T08:59:48;6.60;;;2.15;;
56427;SDS011;42331;53.578;9.760;2023-05-01T09:02:20;7.55;;;2.10;;
56427;SDS011;42331;53.578;9.760;2023-05-01T09:04:53;5.35;;;2.03;;
56427;SDS011;42331;53.578;9.760;2023-05-01T09:07:24;5.30;;;1.97;;
56427;SDS011;42331;53.578;9.760;2023-05-01T09:09:56;5.60;;;1.80;;
56427;SDS011;42331;53.578;9.760;2023-05-01T09:12:27;7.20;;;2.03;;
56427;SDS011;42331;53.578;9.760;2023-05-01T09:15:04;6.70;;;2.33;;
56427;SDS011;42331;53.578;9.760;2023-05-01T09:17:36;5.28;;;1.60;;
56427;SDS011;42331;53.578;9.760;2023-05-01T09:20:07;5.78;;;1.70;;
56427;SDS011;42331;53.578;9.760;2023-05-01T09:22:39;6.15;;;1.80;;
56427;SDS011;42331;53.578;9.760;2023-05-01T09:25:10;6.22;;;1.80;;
56427;SDS011;42331;53.578;9.760;2023-05-01T09:27:41;7.30;;;1.90;;
56427;SDS011;42331;53.578;9.760;2023-05-01T09:30:29;8.50;;;2.10;;
56427;SDS011;42331;53.578;9.760;2023-05-01T09:33:08;8.88;;;2.38;;
56427;SDS011;42331;53.578;9.760;2023-05-01T09:38:23;7.22;;;2.00;;
56427;SDS011;42331;53.578;9.760;2023-05-01T09:40:56;9.30;;;1.90;;
56427;SDS011;42331;53.578;9.760;2023-05-01T09:43:33;5.85;;;1.88;;
56427;SDS011;42331;53.578;9.760;2023-05-01T09:46:08;5.25;;;1.80;;
56427;SDS011;42331;53.578;9.760;2023-05-01T09:48:50;6.65;;;1.83;;
56427;SDS011;42331;53.578;9.760;2023-05-01T09:51:29;5.50;;;1.70;;
56427;SDS011;42331;53.578;9.760;2023-05-01T09:54:01;4.22;;;1.65;;
56427;SDS011;42331;53.578;9.760;2023-05-01T09:56:33;5.72;;;1.80;;
56427;SDS011;42331;53.578;9.760;2023-05-01T09:59:19;4.80;;;1.50;;
56427;SDS011;42331;53.578;9.760;2023-05-01T10:01:53;3.92;;;1.58;;
56427;SDS011;42331;53.578;9.760;2023-05-01T10:04:46;6.35;;;1.95;;
56427;SDS011;42331;53.578;9.760;2023-05-01T10:07:17;6.30;;;1.67;;
56427;SDS011;42331;53.578;9.760;2023-05-01T10:09:48;4.73;;;1.97;;
56427;SDS011;42331;53.578;9.760;2023-05-01T10:12:25;7.25;;;2.22;;
56427;SDS011;42331;53.578;9.760;2023-05-01T10:14:57;6.88;;;1.67;;
56427;SDS011;42331;53.578;9.760;2023-05-01T10:17:28;5.22;;;1.80;;
56427;SDS011;42331;53.578;9.760;2023-05-01T10:20:00;4.47;;;1.80;;
56427;SDS011;42331;53.578;9.760;2023-05-01T10:22:31;5.47;;;1.50;;
56427;SDS011;42331;53.578;9.760;2023-05-01T10:25:02;3.30;;;1.40;;
56427;SDS011;42331;53.578;9.760;2023-05-01T10:27:39;4.32;;;1.50;;
56427;SDS011;42331;53.578;9.760;2023-05-01T10:30:11;5.70;;;1.48;;
56427;SDS011;42331;53.578;9.760;2023-05-01T10:32:42;5.00;;;1.23;;
56427;SDS011;42331;53.578;9.760;2023-05-01T10:35:14;5.73;;;1.70;;
56427;SDS011;42331;53.578;9.760;2023-05-01T10:37:55;4.70;;;1.60;;
56427;SDS011;42331;53.578;9.760;2023-05-01T10:49:02;5.07;;;1.52;;
56427;SDS011;42331;53.578;9.760;2023-05-01T10:51:56;5.05;;;1.60;;
56427;SDS011;42331;53.578;9.760;2023-05-01T10:54:27;4.68;;;1.40;;
56427;SDS011;42331;53.578;9.760;2023-05-01T10:57:02;5.90;;;1.58;;
56427;SDS011;42331;53.578;9.760;2023-05-01T11:02:44;4.18;;;1.35;;
56427;SDS011;42331;53.578;9.760;2023-05-01T11:05:14;3.73;;;1.20;;
56427;SDS011;42331;53.578;9.760;2023-05-01T11:07:45;3.67;;;1.23;;
56427;SDS011;42331;53.578;9.760;2023-05-01T11:12:55;4.45;;;1.10;;
56427;SDS011;42331;53.578;9.760;2023-05-01T11:15:30;5.50;;;1.30;;
56427;SDS011;42331;53.578;9.760;2023-05-01T11:18:01;4.43;;;1.40;;
56427;SDS011;42331;53.578;9.760;2023-05-01T11:23:07;4.57;;;1.20;;
56427;SDS011;42331;53.578;9.760;2023-05-01T11:25:45;3.80;;;1.40;;
56427;SDS011;42331;53.578;9.760;2023-05-01T11:28:17;4.10;;;1.23;;
56427;SDS011;42331;53.578;9.760;2023-05-01T11:30:49;6.65;;;1.25;;
56427;SDS011;42331;53.578;9.760;2023-05-01T11:33:21;5.03;;;1.30;;
56427;SDS011;42331;53.578;9.760;2023-05-01T11:35:57;3.78;;;1.20;;
56427;SDS011;42331;53.578;9.760;2023-05-01T11:38:29;4.85;;;1.20;;
56427;SDS011;42331;53.578;9.760;2023-05-01T11:41:00;5.67;;;1.40;;
56427;SDS011;42331;53.578;9.760;2023-05-01T11:43:33;4.57;;;1.45;;
56427;SDS011;42331;53.578;9.760;2023-05-01T11:46:29;6.82;;;1.30;;
56427;SDS011;42331;53.578;9.760;2023-05-01T11:49:01;5.13;;;1.30;;
56427;SDS011;42331;53.578;9.760;2023-05-01T11:51:32;4.43;;;1.30;;
56427;SDS011;42331;53.578;9.760;2023-05-01T11:54:04;6.33;;;1.30;;
56427;SDS011;42331;53.578;9.760;2023-05-01T11:56:44;5.55;;;1.25;;
56427;SDS011;42331;53.578;9.760;2023-05-01T11:59:15;6.20;;;1.20;;
56427;SDS011;42331;53.578;9.760;2023-05-01T12:01:46;3.10;;;1.00;;
56427;SDS011;42331;53.578;9.760;2023-05-01T12:04:24;2.97;;;1.30;;
56427;SDS011;42331;53.578;9.760;2023-05-01T12:09:29;3.78;;;1.05;;
56427;SDS011;42331;53.578;9.760;2023-05-01T12:12:01;4.63;;;1.23;;
56427;SDS011;42331;53.578;9.760;2023-05-01T12:14:32;4.22;;;1.45;;
56427;SDS011;42331;53.578;9.760;2023-05-01T12:17:04;6.53;;;1.30;;
56427;SDS011;42331;53.578;9.760;2023-05-01T12:19:44;4.35;;;1.17;;
56427;SDS011;42331;53.578;9.760;2023-05-01T12:22:17;3.03;;;0.95;;
56427;SDS011;42331;53.578;9.760;2023-05-01T12:24:49;6.67;;;1.80;;
56427;SDS011;42331;53.578;9.760;2023-05-01T12:27:23;7.68;;;1.40;;
56427;SDS011;42331;53.578;9.760;2023-05-01T12:29:53;2.28;;;1.02;;
56427;SDS011;42331;53.578;9.760;2023-05-01T12:32:28;6.20;;;1.42;;
56427;SDS011;42331;53.578;9.760;2023-05-01T12:35:10;3.92;;;1.27;;
56427;SDS011;42331;53.578;9.760;2023-05-01T12:37:43;5.03;;;1.20;;
56427;SDS011;42331;53.578;9.760;2023-05-01T12:40:14;2.80;;;0.90;;
56427;SDS011;42331;53.578;9.760;2023-05-01T12:42:52;4.07;;;0.90;;
56427;SDS011;42331;53.578;9.760;2023-05-01T12:45:25;2.92;;;1.08;;
56427;SDS011;42331;53.578;9.760;2023-05-01T12:47:55;4.72;;;1.38;;
56427;SDS011;42331;53.578;9.760;2023-05-01T12:50:26;6.00;;;1.93;;
56427;SDS011;42331;53.578;9.760;2023-05-01T12:53:00;5.07;;;1.50;;
56427;SDS011;42331;53.578;9.760;2023-05-01T12:55:40;3.75;;;1.05;;
56427;SDS011;42331;53.578;9.760;2023-05-01T12:58:16;4.65;;;1.00;;
56427;SDS011;42331;53.578;9.760;2023-05-01T13:00:48;4.43;;;1.10;;
56427;SDS011;42331;53.578;9.760;2023-05-01T13:03:22;2.92;;;1.13;;
56427;SDS011;42331;53.578;9.760;2023-05-01T13:11:01;3.90;;;1.10;;
56427;SDS011;42331;53.578;9.760;2023-05-01T13:13:43;3.85;;;1.20;;
56427;SDS011;42331;53.578;9.760;2023-05-01T13:16:15;5.50;;;1.35;;
56427;SDS011;42331;53.578;9.760;2023-05-01T13:18:50;5.60;;;1.33;;
56427;SDS011;42331;53.578;9.760;2023-05-01T13:21:22;4.45;;;1.55;;
56427;SDS011;42331;53.578;9.760;2023-05-01T13:24:07;8.07;;;2.40;;
56427;SDS011;42331;53.578;9.760;2023-05-01T13:26:46;3.53;;;1.50;;
56427;SDS011;42331;53.578;9.760;2023-05-01T13:29:18;4.88;;;1.75;;
56427;SDS011;42331;53.578;9.760;2023-05-01T13:31:49;4.97;;;1.47;;
56427;SDS011;42331;53.578;9.760;2023-05-01T13:34:23;3.00;;;1.33;;
56427;SDS011;42331;53.578;9.760;2023-05-01T13:36:59;3.80;;;1.30;;
56427;SDS011;42331;53.578;9.760;2023-05-01T13:39:31;4.70;;;1.20;;
56427;SDS011;42331;53.578;9.760;2023-05-01T13:42:02;4.75;;;1.35;;
56427;SDS011;42331;53.578;9.760;2023-05-01T13:44:33;4.47;;;1.30;;
56427;SDS011;42331;53.578;9.760;2023-05-01T13:47:14;8.55;;;1.27;;
56427;SDS011;42331;53.578;9.760;2023-05-01T13:49:46;4.43;;;1.63;;
56427;SDS011;42331;53.578;9.760;2023-05-01T13:52:18;3.83;;;1.40;;
56427;SDS011;42331;53.578;9.760;2023-05-01T13:54:49;4.82;;;1.63;;
56427;SDS011;42331;53.578;9.760;2023-05-01T13:57:24;4.38;;;1.63;;
56427;SDS011;42331;53.578;9.760;2023-05-01T13:59:55;4.28;;;1.50;;
56427;SDS011;42331;53.578;9.760;2023-05-01T14:02:27;4.33;;;1.70;;
56427;SDS011;42331;53.578;9.760;2023-05-01T14:04:58;6.97;;;1.40;;
56427;SDS011;42331;53.578;9.760;2023-05-01T14:07:29;5.10;;;1.55;;
56427;SDS011;42331;53.578;9.760;2023-05-01T14:10:00;4.00;;;1.23;;
56427;SDS011;42331;53.578;9.760;2023-05-01T14:12:31;3.57;;;1.30;;
56427;SDS011;42331;53.578;9.760;2023-05-01T14:15:02;3.77;;;1.27;;
56427;SDS011;42331;53.578;9.760;2023-05-01T14:17:34;3.28;;;1.20;;
56427;SDS011;42331;53.578;9.760;2023-05-01T14:20:08;4.95;;;1.30;;
56427;SDS011;42331;53.578;9.760;2023-05-01T14:25:29;4.07;;;1.60;;
56427;SDS011;42331;53.578;9.760;2023-05-01T14:28:04;4.35;;;1.35;;
56427;SDS011;42331;53.578;9.760;2023-05-01T14:30:40;3.28;;;1.17;;
56427;SDS011;42331;53.578;9.760;2023-05-01T14:33:11;3.05;;;1.23;;
56427;SDS011;42331;53.578;9.760;2023-05-01T14:35:47;5.20;;;1.40;;
56427;SDS011;42331;53.578;9.760;2023-05-01T14:38:19;4.35;;;1.60;;
56427;SDS011;42331;53.578;9.760;2023-05-01T14:40:51;5.35;;;1.40;;
56427;SDS011;42331;53.578;9.760;2023-05-01T14:43:22;3.75;;;1.33;;
56427;SDS011;42331;53.578;9.760;2023-05-01T14:45:53;4.20;;;1.10;;
56427;SDS011;42331;53.578;9.760;2023-05-01T14:48:33;3.38;;;1.20;;
56427;SDS011;42331;53.578;9.760;2023-05-01T14:51:09;5.95;;;1.52;;
56427;SDS011;42331;53.578;9.760;2023-05-01T14:53:41;3.15;;;1.20;;
56427;SDS011;42331;53.578;9.760;2023-05-01T14:56:15;4.75;;;1.17;;
56427;SDS011;42331;53.578;9.760;2023-05-01T14:58:46;3.85;;;1.50;;
56427;SDS011;42331;53.578;9.760;2023-05-01T15:01:17;2.40;;;1.17;;
56427;SDS011;42331;53.578;9.760;2023-05-01T15:06:23;4.22;;;1.45;;
56427;SDS011;42331;53.578;9.760;2023-05-01T15:08:54;5.22;;;1.08;;
56427;SDS011;42331;53.578;9.760;2023-05-01T15:11:25;6.17;;;1.60;;
56427;SDS011;42331;53.578;9.760;2023-05-01T15:13:56;4.53;;;1.30;;
56427;SDS011;42331;53.578;9.760;2023-05-01T15:16:26;5.53;;;1.42;;
56427;SDS011;42331;53.578;9.760;2023-05-01T15:18:57;4.00;;;1.60;;
56427;SDS011;42331;53.578;9.760;2023-05-01T15:21:28;4.07;;;1.10;;
56427;SDS011;42331;53.578;9.760;2023-05-01T15:23:59;5.45;;;1.48;;
56427;SDS011;42331;53.578;9.760;2023-05-01T15:26:29;5.13;;;1.40;;
56427;SDS011;42331;53.578;9.760;2023-05-01T15:29:00;4.80;;;1.40;;
56427;SDS011;42331;53.578;9.760;2023-05-01T15:31:31;5.17;;;1.80;;
56427;SDS011;42331;53.578;9.760;2023-05-01T15:34:02;4.07;;;1.30;;
56427;SDS011;42331;53.578;9.760;2023-05-01T15:36:33;3.60;;;1.50;;
56427;SDS011;42331;53.578;9.760;2023-05-01T15:39:06;5.10;;;1.60;;
56427;SDS011;42331;53.578;9.760;2023-05-01T15:41:41;4.13;;;1.35;;
56427;SDS011;42331;53.578;9.760;2023-05-01T15:44:12;5.60;;;1.40;;
56427;SDS011;42331;53.578;9.760;2023-05-01T15:46:44;3.40;;;1.50;;
56427;SDS011;42331;53.578;9.760;2023-05-01T15:49:18;7.20;;;1.48;;
56427;SDS011;42331;53.578;9.760;2023-05-01T15:51:49;6.18;;;1.88;;
56427;SDS011;42331;53.578;9.760;2023-05-01T15:54:19;5.43;;;1.50;;
56427;SDS011;42331;53.578;9.760;2023-05-01T15:56:50;4.87;;;1.33;;
56427;SDS011;42331;53.578;9.760;2023-05-01T15:59:25;4.30;;;1.63;;
56427;SDS011;42331;53.578;9.760;2023-05-01T16:01:57;5.28;;;1.65;;
56427;SDS011;42331;53.578;9.760;2023-05-01T16:04:27;6.10;;;2.25;;
56427;SDS011;42331;53.578;9.760;2023-05-01T16:07:00;5.80;;;2.13;;
56427;SDS011;42331;53.578;9.760;2023-05-01T16:09:31;5.53;;;2.35;;